Time;durP1;ratioP1;P1;durP2;ratioP2;P2;SDS_P1;SDS_P2;PMS_P1;PMS_P2;Temp;Humidity;BMP_temperature;BMP_pressure;BME280_temperature;BME280_humidity;BME280_pressure;Samples;Min_cycle;Max_cycle;Signal;HPM_P1;HPM_P2
2021/10/21 00:01:05;;;;;;;5.53;2.20;;;;;;;11.75;90.49;98857.03;5053243;28;20016;-66
2021/10/21 00:03:30;;;;;;;3.55;2.00;;;;;;;11.69;90.16;98848.03;5053233;28;20540;-66
2021/10/21 00:05:55;;;;;;;1.50;1.37;;;;;;;11.62;89.70;98813.38;5053115;28;20112;-66
2021/10/21 00:08:21;;;;;;;1.80;1.50;;;;;;;11.53;89.63;98781.75;5053265;28;20021;-67
2021/10/21 00:10:48;;;;;;;1.80;1.33;;;;;;;11.49;89.57;98762.72;5053163;28;20013;-67
2021/10/21 00:13:13;;;;;;;3.17;1.38;;;;;;;11.43;89.62;98742.19;5053237;28;20037;-67
2021/10/21 00:15:39;;;;;;;2.27;1.40;;;;;;;11.39;89.97;98740.97;5052999;28;20025;-67
2021/10/21 00:18:04;;;;;;;1.70;1.13;;;;;;;11.36;89.62;98752.88;5053088;28;20305;-67
2021/10/21 00:20:30;;;;;;;3.53;1.30;;;;;;;11.34;89.62;98746.91;5052771;28;20060;-67
2021/10/21 00:22:56;;;;;;;3.28;1.08;;;;;;;11.25;88.90;98774.81;5052907;28;20483;-67
2021/10/21 00:25:21;;;;;;;1.17;0.70;;;;;;;11.16;88.18;98758.22;5051231;28;20202;-67
2021/10/21 00:27:46;;;;;;;1.42;0.70;;;;;;;11.14;88.72;98754.94;5034943;28;20021;-67
2021/10/21 00:30:12;;;;;;;1.03;0.67;;;;;;;11.03;88.28;98763.56;5052910;28;20096;-67
2021/10/21 00:32:37;;;;;;;0.75;0.70;;;;;;;10.96;88.81;98780.38;5052680;28;20021;-67
2021/10/21 00:35:03;;;;;;;4.15;0.80;;;;;;;10.93;88.46;98763.97;5052967;28;20036;-66
2021/10/21 00:37:29;;;;;;;2.50;1.02;;;;;;;10.90;87.75;98796.34;5052669;28;20029;-66
2021/10/21 00:39:54;;;;;;;2.10;0.90;;;;;;;10.77;87.16;98775.84;5052641;28;20384;-67
2021/10/21 00:42:19;;;;;;;1.53;0.63;;;;;;;10.69;87.67;98781.34;5052778;28;20033;-66
2021/10/21 00:44:45;;;;;;;1.97;0.67;;;;;;;10.62;87.83;98771.53;5052722;28;20029;-66
2021/10/21 00:47:10;;;;;;;5.03;0.90;;;;;;;10.59;88.04;98779.09;5052408;28;20539;-67
2021/10/21 00:49:36;;;;;;;2.60;0.77;;;;;;;10.53;88.41;98767.41;5052764;28;20683;-67
2021/10/21 00:52:01;;;;;;;3.77;1.00;;;;;;;10.45;87.95;98749.78;5052193;28;20056;-66
2021/10/21 00:54:27;;;;;;;2.15;0.73;;;;;;;10.39;87.97;98744.44;5052446;28;20263;-66
2021/10/21 00:56:54;;;;;;;3.50;0.98;;;;;;;10.35;88.27;98741.34;5052227;28;20469;-66
2021/10/21 00:59:20;;;;;;;5.13;1.00;;;;;;;10.27;88.46;98733.53;5052279;28;20028;-66
2021/10/21 01:01:46;;;;;;;;;;;;;;;10.22;87.50;98744.75;5052825;28;20024;-66
2021/10/21 01:04:12;;;;;;;3.70;0.93;;;;;;;10.18;87.44;98759.50;5052290;28;19915;-66
2021/10/21 01:06:39;;;;;;;;;;;;;;;10.12;87.03;98757.63;5051568;28;20128;-66
2021/10/21 01:09:05;;;;;;;4.22;1.13;;;;;;;10.08;85.87;98756.38;5052351;28;19912;-66
2021/10/21 01:11:30;;;;;;;4.40;1.10;;;;;;;10.05;85.61;98765.59;5052024;28;20095;-66
2021/10/21 01:13:55;;;;;;;2.83;0.97;;;;;;;9.96;84.93;98758.81;5052075;28;20064;-66
2021/10/21 01:16:21;;;;;;;8.13;1.60;;;;;;;9.89;83.92;98773.91;5051959;28;20059;-66
2021/10/21 01:18:46;;;;;;;5.13;1.37;;;;;;;9.82;84.42;98765.06;5051838;28;20052;-68
2021/10/21 01:21:13;;;;;;;8.00;2.80;;;;;;;9.81;83.73;98753.63;5052163;28;20102;-66
2021/10/21 01:23:39;;;;;;;6.05;1.83;;;;;;;9.84;83.89;98745.25;5051505;28;20021;-66
2021/10/21 01:26:09;;;;;;;5.97;1.58;;;;;;;9.82;84.33;98747.25;5051397;28;20543;-68
2021/10/21 01:28:34;;;;;;;5.65;1.30;;;;;;;9.77;84.36;98755.84;5051760;28;20484;-68
2021/10/21 01:31:00;;;;;;;7.27;1.20;;;;;;;9.78;83.93;98743.38;5051587;28;20024;-67
2021/10/21 01:33:25;;;;;;;5.47;1.17;;;;;;;9.84;83.33;98755.88;5051553;28;20021;-66
2021/10/21 01:35:50;;;;;;;5.63;1.50;;;;;;;9.89;83.54;98753.44;5051554;28;20372;-66
2021/10/21 01:38:15;;;;;;;7.47;1.30;;;;;;;9.95;82.52;98749.16;5051604;28;20029;-66
2021/10/21 01:40:41;;;;;;;5.80;1.20;;;;;;;10.02;81.68;98746.53;5051418;28;20037;-66
2021/10/21 01:43:08;;;;;;;3.60;1.20;;;;;;;10.02;81.27;98742.03;5051609;28;20032;-66
2021/10/21 01:45:34;;;;;;;3.83;1.30;;;;;;;10.02;81.90;98739.38;5051484;28;20074;-66
2021/10/21 01:48:02;;;;;;;2.63;0.75;;;;;;;9.99;82.46;98747.75;5051358;28;20012;-66
2021/10/21 01:50:29;;;;;;;3.15;0.80;;;;;;;9.92;82.88;98736.28;5051161;28;20139;-66
2021/10/21 01:52:55;;;;;;;4.18;0.98;;;;;;;9.88;83.61;98741.16;5051063;28;20033;-66
2021/10/21 01:55:21;;;;;;;4.88;1.10;;;;;;;9.80;83.79;98736.03;5051112;28;20029;-67
2021/10/21 01:57:47;;;;;;;3.47;0.98;;;;;;;9.79;83.49;98731.72;5051204;28;20021;-67
2021/10/21 02:00:15;;;;;;;3.08;1.00;;;;;;;9.72;83.83;98741.50;5051232;28;20464;-67
2021/10/21 02:02:44;;;;;;;2.03;1.00;;;;;;;9.67;84.48;98735.97;5051092;28;20024;-66
2021/10/21 02:05:11;;;;;;;7.05;1.00;;;;;;;9.62;85.48;98758.63;5050911;28;20492;-66
2021/10/21 02:07:36;;;;;;;3.85;0.90;;;;;;;9.56;85.16;98740.81;5051027;28;20044;-66
2021/10/21 02:10:06;;;;;;;3.40;1.00;;;;;;;9.47;85.48;98732.16;5050817;28;20033;-66
2021/10/21 02:12:32;;;;;;;2.78;0.85;;;;;;;9.46;86.14;98721.72;5050837;28;20115;-66
2021/10/21 02:14:58;;;;;;;4.88;1.08;;;;;;;9.40;86.17;98722.50;5050818;28;20480;-66
2021/10/21 02:17:24;;;;;;;3.40;1.10;;;;;;;9.38;86.33;98713.91;5050809;28;20040;-66
2021/10/21 02:19:50;;;;;;;3.20;0.70;;;;;;;9.34;86.64;98704.66;5032645;28;20086;-66
2021/10/21 02:22:15;;;;;;;3.70;1.03;;;;;;;9.33;86.97;98695.88;5051054;28;20024;-66
2021/10/21 02:24:40;;;;;;;4.30;1.00;;;;;;;9.34;87.38;98694.03;5050326;28;20473;-67
2021/10/21 02:27:06;;;;;;;4.13;1.20;;;;;;;9.31;87.16;98689.94;5050494;28;20123;-66
2021/10/21 02:29:31;;;;;;;4.75;1.15;;;;;;;9.29;87.29;98684.00;5050718;28;20484;-66
2021/10/21 02:31:57;;;;;;;2.75;0.80;;;;;;;9.27;87.56;98689.53;5050485;28;20482;-66
2021/10/21 02:34:22;;;;;;;3.37;0.90;;;;;;;9.26;87.50;98692.38;5050587;28;20108;-66
2021/10/21 02:36:47;;;;;;;2.10;0.90;;;;;;;9.24;87.54;98692.56;5050555;28;20024;-66
2021/10/21 02:39:13;;;;;;;3.20;0.90;;;;;;;9.24;87.11;98681.94;5050704;28;20608;-67
2021/10/21 02:41:38;;;;;;;4.43;1.00;;;;;;;9.23;86.88;98690.94;5050418;28;20577;-66
2021/10/21 02:44:04;;;;;;;4.53;1.10;;;;;;;9.22;87.57;98678.66;5050507;28;20017;-66
2021/10/21 02:46:29;;;;;;;3.47;0.80;;;;;;;9.25;87.79;98670.28;5050349;28;20072;-66
2021/10/21 02:48:55;;;;;;;2.47;0.80;;;;;;;9.25;87.94;98664.97;5050365;28;20025;-66
2021/10/21 02:51:20;;;;;;;1.70;0.90;;;;;;;9.26;87.60;98671.13;5050302;28;20279;-67
2021/10/21 02:53:45;;;;;;;2.90;0.87;;;;;;;9.27;87.72;98672.75;5050520;28;20024;-66
2021/10/21 02:56:11;;;;;;;3.45;1.08;;;;;;;9.26;87.85;98669.28;5050070;28;20028;-66
2021/10/21 02:58:36;;;;;;;2.50;0.80;;;;;;;9.29;88.62;98671.53;5050414;28;20094;-67
2021/10/21 03:01:01;;;;;;;2.30;1.20;;;;;;;9.31;88.41;98663.34;5050426;28;20100;-67
2021/10/21 03:03:28;;;;;;;5.07;0.90;;;;;;;9.34;88.44;98665.63;5050221;28;20029;-67
2021/10/21 03:05:53;;;;;;;2.10;1.10;;;;;;;9.33;88.52;98677.28;5050184;28;20021;-67
2021/10/21 03:08:19;;;;;;;4.83;1.00;;;;;;;9.35;88.01;98651.34;5050498;28;20029;-67
2021/10/21 03:10:44;;;;;;;5.20;0.80;;;;;;;9.40;87.74;98669.34;5050292;28;20037;-67
2021/10/21 03:13:09;;;;;;;1.77;0.70;;;;;;;9.43;87.74;98659.13;5050241;28;20036;-66
2021/10/21 03:15:35;;;;;;;3.70;1.07;;;;;;;9.44;87.89;98660.78;5050220;28;20025;-66
2021/10/21 03:18:00;;;;;;;2.97;0.93;;;;;;;9.48;87.63;98663.84;5050182;28;20113;-66
2021/10/21 03:20:26;;;;;;;1.07;0.83;;;;;;;9.52;87.62;98651.81;5032314;28;20370;-67
2021/10/21 03:22:51;;;;;;;4.07;1.10;;;;;;;9.52;86.87;98659.81;5050007;28;20036;-67
2021/10/21 03:25:17;;;;;;;4.72;1.10;;;;;;;9.53;87.53;98669.41;5065819;22;20106;-63
2021/10/21 03:27:42;;;;;;;3.67;1.50;;;;;;;9.53;87.94;98674.72;5050092;28;20515;-64
2021/10/21 03:30:09;;;;;;;4.65;1.05;;;;;;;9.56;88.04;98671.69;5051236;28;20107;-63
2021/10/21 03:32:35;;;;;;;1.63;1.25;;;;;;;9.58;87.88;98663.50;5053482;28;20145;-62
2021/10/21 03:35:01;;;;;;;2.60;1.30;;;;;;;9.60;87.44;98666.75;5054019;28;20403;-62
2021/10/21 03:37:27;;;;;;;3.50;1.00;;;;;;;9.60;87.55;98674.75;5036040;28;20033;-63
2021/10/21 03:39:53;;;;;;;2.53;1.20;;;;;;;9.61;87.81;98673.72;5054055;28;20023;-63
2021/10/21 03:42:20;;;;;;;3.70;1.30;;;;;;;9.61;87.95;98674.56;5053703;28;20025;-62
2021/10/21 03:44:46;;;;;;;3.15;0.90;;;;;;;9.58;87.91;98677.59;5054069;28;20070;-63
2021/10/21 03:47:12;;;;;;;7.80;1.75;;;;;;;9.59;88.07;98681.91;5053982;28;20054;-63
2021/10/21 03:49:38;;;;;;;3.40;1.10;;;;;;;9.58;88.31;98680.25;5053821;28;20033;-63
2021/10/21 03:52:04;;;;;;;4.00;0.90;;;;;;;9.60;88.50;98682.72;5035605;28;20033;-63
2021/10/21 03:54:31;;;;;;;6.70;1.20;;;;;;;9.57;88.47;98699.91;5053758;28;20511;-62
2021/10/21 03:56:56;;;;;;;;;;;;;;;9.57;88.76;98696.41;5053614;28;20037;-62
2021/10/21 03:59:21;;;;;;;4.10;1.67;;;;;;;9.56;88.89;98706.25;5053647;28;20287;-63
2021/10/21 04:01:47;;;;;;;1.58;0.75;;;;;;;9.54;88.84;98728.72;5053702;28;20033;-62
2021/10/21 04:04:12;;;;;;;1.57;0.90;;;;;;;9.54;89.07;98726.06;5053670;28;20032;-62
2021/10/21 04:06:38;;;;;;;3.22;1.05;;;;;;;9.61;89.21;98815.50;5053377;28;20040;-62
2021/10/21 04:09:03;;;;;;;3.30;1.40;;;;;;;9.62;88.93;98798.50;5053221;28;20040;-62
2021/10/21 04:11:28;;;;;;;5.70;1.00;;;;;;;9.49;86.18;98790.47;5053537;28;20029;-63
2021/10/21 04:13:53;;;;;;;3.50;0.53;;;;;;;9.33;86.76;98785.44;5053100;28;20396;-64
2021/10/21 04:16:19;;;;;;;5.90;1.23;;;;;;;9.29;86.70;98785.00;5053286;28;20029;-63
2021/10/21 04:18:44;;;;;;;7.28;1.45;;;;;;;9.27;85.56;98800.31;5053389;28;20043;-63
2021/10/21 04:21:11;;;;;;;3.73;0.90;;;;;;;9.20;84.64;98813.56;5053172;28;20078;-64
2021/10/21 04:23:36;;;;;;;4.68;1.58;;;;;;;9.10;85.59;98836.97;5053106;28;20025;-64
2021/10/21 04:26:02;;;;;;;3.00;0.82;;;;;;;9.08;85.43;98825.72;5052639;28;20063;-64
2021/10/21 04:28:27;;;;;;;2.67;0.60;;;;;;;9.10;84.23;98867.03;5052824;28;20024;-64
2021/10/21 04:30:52;;;;;;;3.40;0.93;;;;;;;9.05;84.15;98896.00;5053010;28;20028;-64
2021/10/21 04:33:18;;;;;;;0.70;0.63;;;;;;;9.00;84.73;98924.97;5052885;28;20445;-64
2021/10/21 04:35:43;;;;;;;3.87;1.10;;;;;;;9.02;85.97;98962.81;5053093;28;20029;-65
2021/10/21 04:38:08;;;;;;;5.77;1.00;;;;;;;9.00;87.06;98982.63;5052809;28;20380;-63
2021/10/21 04:40:33;;;;;;;2.50;0.77;;;;;;;8.97;86.11;99002.41;5052728;28;20063;-64
2021/10/21 04:42:59;;;;;;;1.23;0.67;;;;;;;8.89;86.10;99018.44;5051089;28;20180;-64
2021/10/21 04:45:25;;;;;;;4.77;1.17;;;;;;;8.76;85.70;99014.63;5052713;28;20104;-64
2021/10/21 04:47:53;;;;;;;4.75;1.40;;;;;;;8.72;86.37;99062.94;5052540;28;20378;-63
2021/10/21 04:50:19;;;;;;;4.17;1.07;;;;;;;8.77;87.12;99074.69;5052440;28;20511;-64
2021/10/21 04:52:44;;;;;;;3.22;1.25;;;;;;;8.75;88.05;99102.44;5052524;28;20070;-64
2021/10/21 04:55:09;;;;;;;9.93;1.57;;;;;;;8.80;87.17;99129.28;5052176;28;20029;-63
2021/10/21 04:57:36;;;;;;;9.30;1.57;;;;;;;8.82;87.24;99142.38;5052471;28;20388;-65
2021/10/21 05:00:04;;;;;;;10.47;1.57;;;;;;;8.87;86.89;99163.91;5052088;28;20783;-64
2021/10/21 05:02:29;;;;;;;8.37;1.33;;;;;;;8.87;86.36;99179.84;5052269;28;20461;-64
2021/10/21 05:04:54;;;;;;;4.43;1.87;;;;;;;8.86;84.63;99194.94;5052363;28;20039;-64
2021/10/21 05:07:20;;;;;;;3.30;1.20;;;;;;;8.88;83.62;99189.47;5052248;28;20020;-63
2021/10/21 05:09:45;;;;;;;8.17;1.87;;;;;;;8.87;83.15;99232.97;5052187;28;20082;-64
2021/10/21 05:12:10;;;;;;;5.83;1.20;;;;;;;8.80;84.00;99259.44;5052180;28;20117;-64
2021/10/21 05:14:36;;;;;;;6.27;1.30;;;;;;;8.79;84.42;99263.91;5051809;28;20106;-64
2021/10/21 05:17:01;;;;;;;5.70;1.40;;;;;;;8.80;83.60;99286.00;5052165;28;20029;-64
2021/10/21 05:19:26;;;;;;;7.25;1.17;;;;;;;8.83;83.49;99290.94;5051925;28;20533;-64
2021/10/21 05:21:52;;;;;;;7.00;1.57;;;;;;;8.88;82.61;99283.28;5051985;28;20025;-64
2021/10/21 05:24:18;;;;;;;6.13;1.65;;;;;;;8.90;82.72;99326.41;5051954;28;20075;-64
2021/10/21 05:26:43;;;;;;;6.07;1.40;;;;;;;8.94;81.58;99319.75;5051490;28;20053;-64
2021/10/21 05:29:08;;;;;;;5.77;1.40;;;;;;;8.99;81.55;99337.81;5051732;28;20275;-65
2021/10/21 05:31:33;;;;;;;8.23;1.73;;;;;;;9.00;82.15;99354.59;5051616;28;20040;-63
2021/10/21 05:33:59;;;;;;;9.80;1.70;;;;;;;9.03;82.50;99360.38;5051725;28;20116;-64
2021/10/21 05:36:24;;;;;;;7.73;1.70;;;;;;;9.02;83.40;99379.16;5051791;28;20035;-64
2021/10/21 05:38:51;;;;;;;11.00;2.17;;;;;;;9.11;83.01;99389.56;5051567;28;20108;-63
2021/10/21 05:41:16;;;;;;;9.70;1.90;;;;;;;9.37;80.21;99403.47;5051701;28;20056;-67
2021/10/21 05:43:42;;;;;;;7.32;1.85;;;;;;;9.38;80.89;99399.81;5033764;28;20060;-67
2021/10/21 05:46:07;;;;;;;10.70;2.80;;;;;;;9.41;79.07;99431.34;5051313;28;20486;-65
2021/10/21 05:48:33;;;;;;;9.80;2.17;;;;;;;9.44;79.84;99445.13;5051643;28;20181;-64
2021/10/21 05:50:58;;;;;;;9.83;1.97;;;;;;;9.43;79.41;99462.09;5051389;28;20021;-64
2021/10/21 05:53:23;;;;;;;12.27;2.20;;;;;;;9.49;78.53;99473.84;5050952;28;20170;-67
2021/10/21 05:55:49;;;;;;;6.27;2.10;;;;;;;9.54;74.86;99478.63;5033153;28;20029;-70
2021/10/21 05:58:14;;;;;;;4.57;1.53;;;;;;;9.53;75.19;99517.69;5051332;28;20457;-63
2021/10/21 06:00:40;;;;;;;10.00;1.90;;;;;;;9.49;74.44;99507.59;5050958;28;20388;-64
2021/10/21 06:03:05;;;;;;;6.88;1.98;;;;;;;9.50;72.90;99531.34;5051198;28;20025;-65
2021/10/21 06:05:31;;;;;;;6.22;2.45;;;;;;;9.52;69.75;99531.16;5051105;28;20036;-63
2021/10/21 06:07:59;;;;;;;8.23;1.42;;;;;;;9.56;67.38;99546.59;5051161;28;20025;-65
2021/10/21 06:10:25;;;;;;;6.07;1.70;;;;;;;9.65;67.41;99531.38;5051017;28;20036;-63
2021/10/21 06:12:50;;;;;;;7.17;1.33;;;;;;;9.68;67.87;99551.50;5050686;28;20029;-63
2021/10/21 06:15:17;;;;;;;10.48;1.75;;;;;;;9.72;68.35;99566.13;5051299;28;20023;-66
2021/10/21 06:17:44;;;;;;;6.70;2.88;;;;;;;9.70;68.68;99565.44;5032796;28;20417;-63
2021/10/21 06:20:13;;;;;;;14.10;4.03;;;;;;;9.80;68.12;99569.53;5050907;28;20124;-64
2021/10/21 06:22:39;;;;;;;4.95;2.42;;;;;;;9.88;67.74;99586.44;5050823;28;20036;-63
2021/10/21 06:25:07;;;;;;;8.23;1.75;;;;;;;9.83;69.94;99610.09;5050220;28;20041;-63
2021/10/21 06:27:33;;;;;;;7.50;2.70;;;;;;;9.68;74.96;99655.22;5032011;28;20147;-63
2021/10/21 06:29:59;;;;;;;6.20;2.08;;;;;;;9.22;79.14;99662.09;5050686;28;20451;-63
2021/10/21 06:32:24;;;;;;;6.83;2.13;;;;;;;8.91;82.81;99654.88;5050508;28;20032;-62
2021/10/21 06:34:49;;;;;;;10.20;2.63;;;;;;;8.80;84.45;99664.03;5050820;28;20688;-63
2021/10/21 06:37:15;;;;;;;10.33;2.43;;;;;;;8.80;84.57;99673.84;5050798;28;20614;-65
2021/10/21 06:39:41;;;;;;;12.17;2.50;;;;;;;8.79;84.08;99696.88;5032558;28;20499;-64
2021/10/21 06:42:06;;;;;;;12.02;2.40;;;;;;;8.78;83.79;99694.41;5050507;28;20027;-63
2021/10/21 06:44:31;;;;;;;10.13;2.17;;;;;;;8.71;83.97;99701.41;5050762;28;20056;-64
2021/10/21 06:46:57;;;;;;;6.87;2.40;;;;;;;8.74;81.86;99739.06;5050279;28;20017;-63
2021/10/21 06:49:23;;;;;;;5.60;2.13;;;;;;;8.62;82.88;99729.78;5050362;28;20017;-63
2021/10/21 06:51:49;;;;;;;7.40;1.83;;;;;;;8.58;82.47;99734.59;5050413;28;20048;-63
2021/10/21 06:54:14;;;;;;;7.10;1.97;;;;;;;8.64;80.23;99738.38;5050283;28;20025;-63
2021/10/21 06:56:41;;;;;;;19.33;2.90;;;;;;;8.60;80.99;99753.84;5050121;28;20061;-63
2021/10/21 06:59:06;;;;;;;10.43;1.80;;;;;;;8.58;80.84;99755.81;5049863;28;20515;-63
2021/10/21 07:01:31;;;;;;;7.00;1.77;;;;;;;8.56;79.98;99751.69;5050425;28;20033;-63
2021/10/21 07:04:00;;;;;;;6.97;2.27;;;;;;;8.56;80.33;99794.16;5032178;28;20029;-63
2021/10/21 07:06:26;;;;;;;4.53;1.57;;;;;;;8.56;78.53;99787.03;5053484;28;20021;-63
2021/10/21 07:08:51;;;;;;;5.03;1.83;;;;;;;8.51;78.93;99802.63;5054562;28;20464;-64
2021/10/21 07:11:16;;;;;;;6.73;1.80;;;;;;;8.50;77.10;99810.75;5054408;28;20280;-66
2021/10/21 07:13:42;;;;;;;4.80;1.90;;;;;;;8.48;76.98;99816.22;5054204;28;20029;-65
2021/10/21 07:16:07;;;;;;;11.53;1.90;;;;;;;8.61;76.21;99842.31;5054380;28;20427;-63
2021/10/21 07:18:33;;;;;;;7.22;2.05;;;;;;;8.73;73.98;99848.13;5054296;28;20025;-63
2021/10/21 07:20:58;;;;;;;10.70;3.00;;;;;;;8.78;75.12;99849.31;5054305;28;20091;-62
2021/10/21 07:23:23;;;;;;;6.23;1.83;;;;;;;8.91;76.12;99858.63;5036445;28;20282;-62
2021/10/21 07:25:49;;;;;;;8.03;1.80;;;;;;;9.13;75.10;99867.78;5068366;22;20055;-66
2021/10/21 07:28:14;;;;;;;12.90;2.63;;;;;;;9.33;72.98;99875.44;5054259;28;20043;-66
2021/10/21 07:30:40;;;;;;;4.17;1.90;;;;;;;9.47;73.14;99888.06;5053993;28;20021;-66
2021/10/21 07:33:05;;;;;;;4.47;1.80;;;;;;;9.55;71.15;99881.91;5053800;28;20434;-66
2021/10/21 07:35:31;;;;;;;6.63;1.77;;;;;;;9.77;71.02;99883.00;5054158;28;20025;-66
2021/10/21 07:37:58;;;;;;;;;;;;;;;10.23;68.51;99911.66;5054516;28;20366;-66
2021/10/21 07:40:23;;;;;;;6.77;2.03;;;;;;;10.39;67.01;99916.16;5035911;28;19921;-66
2021/10/21 07:42:49;;;;;;;6.90;1.70;;;;;;;10.35;66.15;99920.09;5053847;28;20425;-63
2021/10/21 07:45:14;;;;;;;6.63;1.90;;;;;;;10.11;69.79;99921.84;5043864;28;20021;-63
2021/10/21 07:47:39;;;;;;;7.40;2.53;;;;;;;9.96;71.05;99929.72;5041618;28;20103;-64
2021/10/21 07:50:06;;;;;;;7.97;1.90;;;;;;;9.86;73.24;99935.22;5042578;28;20041;-64
2021/10/21 07:52:34;;;;;;;6.93;2.47;;;;;;;9.84;73.22;99942.53;5042778;28;20028;-64
2021/10/21 07:54:59;;;;;;;9.50;2.15;;;;;;;9.83;72.85;99954.19;5044049;28;20072;-65
2021/10/21 07:57:26;;;;;;;6.50;1.77;;;;;;;9.88;72.84;99973.13;5038792;28;20026;-65
2021/10/21 07:59:54;;;;;;;6.82;2.42;;;;;;;9.86;74.41;99969.81;5033514;28;20033;-64
2021/10/21 08:02:19;;;;;;;9.45;2.17;;;;;;;9.96;72.54;99972.28;5033399;28;20523;-65
2021/10/21 08:04:45;;;;;;;8.23;1.80;;;;;;;9.99;72.75;99979.13;5033285;28;20025;-65
2021/10/21 08:07:10;;;;;;;11.85;1.70;;;;;;;10.06;72.32;100012.03;5033242;28;20429;-66
2021/10/21 08:09:36;;;;;;;5.07;1.37;;;;;;;9.98;72.61;100012.91;5033325;28;20048;-66
2021/10/21 08:12:04;;;;;;;4.67;1.37;;;;;;;9.81;74.60;100017.38;5033216;28;20455;-66
2021/10/21 08:14:30;;;;;;;4.05;1.02;;;;;;;9.70;77.05;100009.72;5033175;28;20476;-65
2021/10/21 08:16:59;;;;;;;5.07;1.20;;;;;;;9.72;76.48;100023.72;5033026;28;20441;-66
2021/10/21 08:19:29;;;;;;;4.60;1.70;;;;;;;9.62;76.71;100024.69;5033000;28;20025;-66
2021/10/21 08:21:54;;;;;;;4.45;2.20;;;;;;;9.59;77.66;100025.03;5033134;28;20033;-66
2021/10/21 08:24:21;;;;;;;3.67;1.30;;;;;;;9.48;78.81;100033.31;5033155;28;20552;-65
2021/10/21 08:26:49;;;;;;;4.35;1.25;;;;;;;9.45;79.90;100037.13;5032699;28;20459;-66
2021/10/21 08:29:16;;;;;;;5.75;1.50;;;;;;;9.36;79.74;100048.75;5031479;28;20091;-64
2021/10/21 08:31:41;;;;;;;4.45;1.48;;;;;;;9.30;80.93;100042.25;5033050;28;20051;-66
2021/10/21 08:34:07;;;;;;;4.37;1.20;;;;;;;9.32;80.68;100043.94;5032851;28;20389;-66
2021/10/21 08:36:32;;;;;;;4.97;1.63;;;;;;;9.37;81.99;100054.91;5032609;28;20071;-66
2021/10/21 08:38:57;;;;;;;5.03;1.53;;;;;;;9.40;82.09;100051.91;5032755;28;20022;-66
2021/10/21 08:41:24;;;;;;;5.37;1.27;;;;;;;9.40;82.00;100057.22;5032650;28;20164;-66
2021/10/21 08:43:51;;;;;;;5.47;1.42;;;;;;;9.35;81.94;100056.88;5032702;28;20025;-66
2021/10/21 08:46:24;;;;;;;7.65;1.40;;;;;;;9.28;82.24;100073.50;5032576;28;20366;-67
2021/10/21 08:48:52;;;;;;;8.48;1.80;;;;;;;9.32;82.27;100071.34;5032580;28;20112;-64
2021/10/21 08:51:18;;;;;;;4.60;1.20;;;;;;;9.41;81.11;100070.38;5032200;28;20080;-67
2021/10/21 08:53:44;;;;;;;5.25;1.50;;;;;;;9.43;80.91;100084.34;5032665;28;20049;-65
2021/10/21 08:56:10;;;;;;;6.67;2.20;;;;;;;9.42;81.19;100088.00;5032347;28;20068;-65
2021/10/21 08:58:35;;;;;;;7.63;1.75;;;;;;;9.43;80.75;100105.63;5032212;28;20029;-67
2021/10/21 09:01:06;;;;;;;5.03;1.37;;;;;;;9.51;79.03;100088.84;5032421;28;20037;-72
2021/10/21 09:06:32;;;;;;;3.40;1.25;;;;;;;9.44;81.35;100127.72;5032177;28;20501;-74
2021/10/21 09:09:00;;;;;;;8.00;1.33;;;;;;;9.47;81.65;100117.59;5032191;28;20435;-72
2021/10/21 09:11:26;;;;;;;4.22;1.42;;;;;;;9.50;81.94;100124.41;5032049;28;20104;-71
2021/10/21 09:14:10;;;;;;;3.13;1.23;;;;;;;9.49;81.35;100132.56;5032186;28;20109;-72
2021/10/21 09:16:36;;;;;;;7.78;1.65;;;;;;;9.48;81.66;100134.38;5032037;28;20035;-74
2021/10/21 09:19:12;;;;;;;10.35;2.15;;;;;;;9.52;81.96;100142.88;5032070;28;20102;-72
2021/10/21 09:21:40;;;;;;;8.75;1.40;;;;;;;9.53;82.01;100150.69;5031709;28;20373;-72
2021/10/21 09:24:32;;;;;;;11.88;1.80;;;;;;;9.62;82.60;100140.91;4997723;28;20583;-73
2021/10/21 09:27:01;;;;;;;6.78;1.50;;;;;;;9.82;82.96;100153.94;5031356;28;20076;-73
2021/10/21 09:29:26;;;;;;;6.60;1.23;;;;;;;9.95;79.81;100147.16;5031193;28;20052;-72
2021/10/21 09:32:03;;;;;;;4.95;1.30;;;;;;;9.86;78.70;100172.06;5031565;28;20026;-67
2021/10/21 09:34:28;;;;;;;4.85;1.35;;;;;;;9.81;79.81;100187.69;5031501;28;20111;-66
2021/10/21 09:36:53;;;;;;;5.20;1.00;;;;;;;9.71;80.13;100182.50;5031304;28;20685;-67
2021/10/21 09:39:19;;;;;;;11.47;1.90;;;;;;;9.64;79.59;100192.97;5031528;28;20065;-67
2021/10/21 09:41:44;;;;;;;5.53;1.30;;;;;;;9.67;80.85;100181.16;5031515;28;20338;-67
2021/10/21 09:44:24;;;;;;;5.30;1.30;;;;;;;9.69;81.51;100191.63;5031550;28;20033;-66
2021/10/21 09:46:49;;;;;;;4.40;1.42;;;;;;;9.83;80.28;100199.00;5031407;28;20036;-66
2021/10/21 09:49:32;;;;;;;6.27;1.53;;;;;;;9.80;78.03;100208.13;5031448;28;20022;-66
2021/10/21 09:51:58;;;;;;;7.03;1.58;;;;;;;9.70;79.71;100238.53;5031303;28;20044;-65
2021/10/21 09:54:24;;;;;;;4.72;1.30;;;;;;;9.57;80.53;100237.16;5031307;28;20029;-66
2021/10/21 09:56:59;;;;;;;5.28;1.38;;;;;;;9.47;81.59;100236.47;5031177;28;20041;-66
2021/10/21 09:59:26;;;;;;;4.10;1.35;;;;;;;9.61;82.15;100227.88;5031217;28;20048;-65
2021/10/21 10:01:56;;;;;;;7.18;1.55;;;;;;;9.85;81.93;100223.63;5031106;28;20108;-67
2021/10/21 10:04:23;;;;;;;2.80;1.40;;;;;;;10.10;81.88;100223.69;5031418;28;20057;-66
2021/10/21 10:06:50;;;;;;;7.93;1.30;;;;;;;10.45;80.36;100225.28;5031095;28;20079;-66
2021/10/21 10:09:16;;;;;;;5.68;1.42;;;;;;;10.52;78.44;100219.25;5030984;28;20056;-66
2021/10/21 10:11:41;;;;;;;4.53;1.33;;;;;;;10.42;76.77;100232.75;5012977;28;20108;-67
2021/10/21 10:14:07;;;;;;;4.73;1.20;;;;;;;10.36;78.30;100236.91;5030786;28;20029;-67
2021/10/21 10:16:32;;;;;;;4.97;1.38;;;;;;;10.35;76.28;100239.69;5030698;28;20120;-66
2021/10/21 10:18:58;;;;;;;3.13;1.17;;;;;;;10.38;76.25;100253.56;5031095;28;20541;-66
2021/10/21 10:21:35;;;;;;;3.05;1.15;;;;;;;10.53;76.69;100251.09;5031076;28;20109;-66
2021/10/21 10:24:08;;;;;;;6.35;1.60;;;;;;;10.56;75.06;100253.41;5030918;28;20043;-66
2021/10/21 10:26:39;;;;;;;3.53;1.20;;;;;;;10.47;74.72;100251.75;5030589;28;20424;-66
2021/10/21 10:29:05;;;;;;;7.35;1.30;;;;;;;10.34;75.62;100286.00;5030759;28;20025;-66
2021/10/21 10:31:58;;;;;;;4.03;1.00;;;;;;;9.38;79.88;100309.22;5030834;28;20040;-66
2021/10/21 10:34:33;;;;;;;3.55;1.15;;;;;;;8.73;81.87;100327.16;5028767;28;20041;-65
2021/10/21 10:37:14;;;;;;;1.80;1.00;;;;;;;8.58;83.88;100336.63;5030678;28;20611;-66
2021/10/21 10:39:44;;;;;;;6.63;1.20;;;;;;;8.49;84.21;100362.25;5030286;28;20029;-66
2021/10/21 10:42:10;;;;;;;6.38;1.02;;;;;;;8.39;84.59;100369.41;5030660;28;20469;-65
2021/10/21 10:44:35;;;;;;;4.37;1.13;;;;;;;8.20;82.52;100375.69;5030551;28;20155;-66
2021/10/21 10:47:02;;;;;;;5.50;1.00;;;;;;;8.01;82.33;100382.75;5030433;28;20029;-66
2021/10/21 10:49:36;;;;;;;3.00;0.93;;;;;;;7.87;82.90;100378.75;5030682;28;20033;-66
2021/10/21 10:52:05;;;;;;;2.10;0.50;;;;;;;7.78;80.60;100401.66;5030412;28;20034;-65
2021/10/21 10:54:43;;;;;;;6.60;2.00;;;;;;;7.63;82.82;100409.25;5030525;28;20108;-65
2021/10/21 10:57:31;;;;;;;1.43;0.50;;;;;;;7.58;82.03;100416.78;5030606;28;20116;-65
2021/10/21 10:59:58;;;;;;;5.63;0.80;;;;;;;7.58;82.97;100432.69;5029909;28;20041;-65
2021/10/21 11:02:30;;;;;;;3.27;0.77;;;;;;;7.62;83.22;100444.69;5030422;28;20029;-65
2021/10/21 11:05:00;;;;;;;3.23;0.70;;;;;;;7.72;80.67;100446.50;5030500;28;20060;-72
2021/10/21 11:07:28;;;;;;;5.87;0.97;;;;;;;7.74;79.09;100455.97;5030359;28;20113;-70
2021/10/21 11:10:23;;;;;;;3.27;0.60;;;;;;;7.76;78.39;100450.53;5030290;28;20030;-72
2021/10/21 11:12:51;;;;;;;4.80;0.83;;;;;;;7.64;80.70;100456.00;4968821;28;20039;-71
2021/10/21 11:15:29;;;;;;;3.90;0.80;;;;;;;7.61;81.32;100458.91;4969182;28;20035;-71
2021/10/21 11:17:58;;;;;;;3.03;0.93;;;;;;;7.66;80.74;100469.13;4968880;28;20510;-73
2021/10/21 11:20:26;;;;;;;2.13;0.90;;;;;;;7.72;82.08;100473.00;4968997;28;20106;-70
2021/10/21 11:22:52;;;;;;;4.57;1.13;;;;;;;7.82;80.64;100479.97;4952712;28;20384;-71
2021/10/21 11:25:18;;;;;;;3.90;1.55;;;;;;;8.02;77.80;100487.88;4986947;23;20409;-72
2021/10/21 11:27:45;;;;;;;6.40;1.58;;;;;;;8.14;78.86;100485.91;5010924;28;20033;-73
2021/10/21 11:30:15;;;;;;;5.80;1.27;;;;;;;8.39;75.74;100484.44;5010498;28;20604;-71
2021/10/21 11:32:42;;;;;;;5.13;1.27;;;;;;;8.44;78.18;100495.47;5010302;28;20038;-67
2021/10/21 11:35:18;;;;;;;5.47;1.30;;;;;;;8.61;76.63;100498.34;5010496;28;20124;-72
2021/10/21 11:37:48;;;;;;;7.82;1.10;;;;;;;8.78;74.81;100512.66;5010473;28;20109;-72
2021/10/21 11:40:39;;;;;;;5.68;1.15;;;;;;;8.90;73.20;100503.50;5010249;28;20040;-71